Mississippi Enterprise — WDE2542 — position and weather

sailwx.info

Track history (hours):
 
Tides and Currents Weather Stations Pressure Air Temp Water Temp Dewpoint Dewpoint Depression Visibility Wind Speed Wind Dir Waves Ship Positions

Mississippi Enterprise

Owner: U.S. United Ocean Services, LLC, Tampa, FL. More information available from US FCC via Universal Licensing System and Coast Guard Vessel Documentation Center.

Last reported at 2016-Jul-01 03:33 UTC. Time now 2016-Jul-02 09:31 UTC.
Position N 27°53' W 082°26'.

Length 187 m; draft 11.2 m.

Type: Cargo ship. MMSI: 369813000.

Date/timePositionNaut miles runAvg speedWind from/ knotsBaromVisibWave heightAir tempDewpointWater temp
2016-Jul-01 03:33N 27°53' W 082°26'3 2.7
2016-Jul-01 02:33N 27°55' W 082°25'0 0.0
2016-Jul-01 01:33N 27°55' W 082°25'0 0.0
2016-Jul-01 00:33N 27°55' W 082°25'0 0.0
2016-Jun-30 23:33N 27°55' W 082°25'0 0.0
2016-Jun-30 22:33N 27°55' W 082°25'0 0.0
2016-Jun-30 21:33N 27°55' W 082°25'0 0.0
2016-Jun-30 20:33N 27°55' W 082°25'0 0.0
2016-Jun-30 19:33N 27°55' W 082°25'0 0.0
2016-Jun-30 18:30N 27°55' W 082°25'0 0.4
2016-Jun-30 17:33N 27°55' W 082°26'1 0.6
2016-Jun-30 16:31N 27°56' W 082°26'0 0.0
2016-Jun-30 15:31N 27°56' W 082°26'0 0.0
2016-Jun-30 14:28N 27°56' W 082°26'0 0.0
2016-Jun-30 13:31N 27°56' W 082°26'0 0.0
2016-Jun-30 12:31N 27°56' W 082°26'0 0.0
2016-Jun-30 11:28N 27°56' W 082°26'0 0.0
2016-Jun-30 10:31N 27°56' W 082°26'0 0.0
2016-Jun-30 09:31N 27°56' W 082°26'0 0.0
2016-Jun-30 08:31N 27°56' W 082°26'0 0.0
2016-Jun-30 07:31N 27°56' W 082°26'0 0.1
2016-Jun-30 06:28N 27°56' W 082°26'0 0.0
2016-Jun-30 05:31N 27°56' W 082°26'0 0.0
2016-Jun-30 04:31N 27°56' W 082°26'0 0.0
2016-Jun-30 03:31N 27°56' W 082°26'0 0.1
2016-Jun-30 02:31N 27°56' W 082°26'0 0.0
2016-Jun-30 01:31N 27°56' W 082°26'0 0.0
2016-Jun-30 00:31N 27°56' W 082°26'0 0.0
2016-Jun-29 23:31N 27°56' W 082°26'0 0.0
2016-Jun-29 22:31N 27°56' W 082°26'0 0.0
2016-Jun-29 21:31N 27°56' W 082°26'1 0.9
2016-Jun-29 20:33N 27°55' W 082°26'6 6.1
2016-Jun-29 19:32N 27°49' W 082°26'1 1.1
2016-Jun-29 18:32N 27°48' W 082°25'0 0.0
2016-Jun-29 17:32N 27°48' W 082°25'0 0.0
2016-Jun-29 16:32N 27°48' W 082°25'0 0.0
2016-Jun-29 15:32N 27°48' W 082°25'0 0.0
2016-Jun-29 14:32N 27°48' W 082°25'0 0.0
2016-Jun-29 13:32N 27°48' W 082°25'0 0.0
2016-Jun-29 12:23N 27°48' W 082°25'0 0.0
2016-Jun-29 11:32N 27°48' W 082°25'0 0.0
2016-Jun-29 10:32N 27°48' W 082°25'0 0.0
2016-Jun-29 09:32N 27°48' W 082°25'0 0.0
2016-Jun-29 08:32N 27°48' W 082°25'0 0.0
2016-Jun-29 07:29N 27°48' W 082°25'0 0.0
2016-Jun-29 06:17N 27°48' W 082°25'0 0.0
2016-Jun-29 05:26N 27°48' W 082°25'0 0.0
2016-Jun-29 04:29N 27°48' W 082°25'0 0.0
2016-Jun-29 03:29N 27°48' W 082°25'0 0.0
2016-Jun-29 02:26N 27°48' W 082°25'0 0.0
2016-Jun-29 01:29N 27°48' W 082°25'0 0.0
2016-Jun-29 00:32N 27°48' W 082°25'0 0.0
2016-Jun-28 23:32N 27°48' W 082°25'0 0.0
2016-Jun-28 22:29N 27°48' W 082°25'0 0.0
2016-Jun-28 21:32N 27°48' W 082°25'0 0.0
2016-Jun-28 20:32N 27°48' W 082°25'0 0.0
2016-Jun-28 19:23N 27°48' W 082°25'0 0.0
2016-Jun-28 18:17N 27°48' W 082°25'  
2016-Jun-25 07:13N 27°48' W 082°25'0 0.0
2016-Jun-25 02:13N 27°48' W 082°25'1 0.1
2016-Jun-24 11:33N 27°49' W 082°26'  
Track history (hours):
 
Tides and Currents Weather Stations Pressure Air Temp Water Temp Dewpoint Dewpoint Depression Visibility Wind Speed Wind Dir Waves Ship Positions

Mississippi Enterprise

Owner: U.S. United Ocean Services, LLC, Tampa, FL. More information available from US FCC via Universal Licensing System and Coast Guard Vessel Documentation Center.

Last reported at 2016-Jul-01 03:33 UTC. Time now 2016-Jul-02 09:31 UTC.
Position N 27°53' W 082°26'.

Length 187 m; draft 11.2 m.

Type: Cargo ship. MMSI: 369813000.

Date/timePositionNaut miles runAvg speedWind from/ knotsBaromVisibWave heightAir tempDewpointWater temp
2016-Jul-01 03:33N 27°53' W 082°26'3 2.7
2016-Jul-01 02:33N 27°55' W 082°25'0 0.0
2016-Jul-01 01:33N 27°55' W 082°25'0 0.0
2016-Jul-01 00:33N 27°55' W 082°25'0 0.0
2016-Jun-30 23:33N 27°55' W 082°25'0 0.0
2016-Jun-30 22:33N 27°55' W 082°25'0 0.0
2016-Jun-30 21:33N 27°55' W 082°25'0 0.0
2016-Jun-30 20:33N 27°55' W 082°25'0 0.0
2016-Jun-30 19:33N 27°55' W 082°25'0 0.0
2016-Jun-30 18:30N 27°55' W 082°25'0 0.4
2016-Jun-30 17:33N 27°55' W 082°26'1 0.6
2016-Jun-30 16:31N 27°56' W 082°26'0 0.0
2016-Jun-30 15:31N 27°56' W 082°26'0 0.0
2016-Jun-30 14:28N 27°56' W 082°26'0 0.0
2016-Jun-30 13:31N 27°56' W 082°26'0 0.0
2016-Jun-30 12:31N 27°56' W 082°26'0 0.0
2016-Jun-30 11:28N 27°56' W 082°26'0 0.0
2016-Jun-30 10:31N 27°56' W 082°26'0 0.0
2016-Jun-30 09:31N 27°56' W 082°26'0 0.0
2016-Jun-30 08:31N 27°56' W 082°26'0 0.0
2016-Jun-30 07:31N 27°56' W 082°26'0 0.1
2016-Jun-30 06:28N 27°56' W 082°26'0 0.0
2016-Jun-30 05:31N 27°56' W 082°26'0 0.0
2016-Jun-30 04:31N 27°56' W 082°26'0 0.0
2016-Jun-30 03:31N 27°56' W 082°26'0 0.1
2016-Jun-30 02:31N 27°56' W 082°26'0 0.0
2016-Jun-30 01:31N 27°56' W 082°26'0 0.0
2016-Jun-30 00:31N 27°56' W 082°26'0 0.0
2016-Jun-29 23:31N 27°56' W 082°26'0 0.0
2016-Jun-29 22:31N 27°56' W 082°26'0 0.0
2016-Jun-29 21:31N 27°56' W 082°26'1 0.9
2016-Jun-29 20:33N 27°55' W 082°26'6 6.1
2016-Jun-29 19:32N 27°49' W 082°26'1 1.1
2016-Jun-29 18:32N 27°48' W 082°25'0 0.0
2016-Jun-29 17:32N 27°48' W 082°25'0 0.0
2016-Jun-29 16:32N 27°48' W 082°25'0 0.0
2016-Jun-29 15:32N 27°48' W 082°25'0 0.0
2016-Jun-29 14:32N 27°48' W 082°25'0 0.0
2016-Jun-29 13:32N 27°48' W 082°25'0 0.0
2016-Jun-29 12:23N 27°48' W 082°25'0 0.0
2016-Jun-29 11:32N 27°48' W 082°25'0 0.0
2016-Jun-29 10:32N 27°48' W 082°25'0 0.0
2016-Jun-29 09:32N 27°48' W 082°25'0 0.0
2016-Jun-29 08:32N 27°48' W 082°25'0 0.0
2016-Jun-29 07:29N 27°48' W 082°25'0 0.0
2016-Jun-29 06:17N 27°48' W 082°25'0 0.0
2016-Jun-29 05:26N 27°48' W 082°25'0 0.0
2016-Jun-29 04:29N 27°48' W 082°25'0 0.0
2016-Jun-29 03:29N 27°48' W 082°25'0 0.0
2016-Jun-29 02:26N 27°48' W 082°25'0 0.0
2016-Jun-29 01:29N 27°48' W 082°25'0 0.0
2016-Jun-29 00:32N 27°48' W 082°25'0 0.0
2016-Jun-28 23:32N 27°48' W 082°25'0 0.0
2016-Jun-28 22:29N 27°48' W 082°25'0 0.0
2016-Jun-28 21:32N 27°48' W 082°25'0 0.0
2016-Jun-28 20:32N 27°48' W 082°25'0 0.0
2016-Jun-28 19:23N 27°48' W 082°25'0 0.0
2016-Jun-28 18:17N 27°48' W 082°25'  
2016-Jun-25 07:13N 27°48' W 082°25'0 0.0
2016-Jun-25 02:13N 27°48' W 082°25'1 0.1
2016-Jun-24 11:33N 27°49' W 082°26'  

Dump ship's entire track history